Finnhawk — OJNL — position and weather

sailwx.info

Track history (hours):
 
Tides and Currents Weather Stations Pressure Air Temp Water Temp Dewpoint Dewpoint Depression Visibility Wind Speed Wind Dir Waves Ship Positions

Finnhawk

Last reported at 2017-Nov-24 12:08 UTC. Time now 2017-Nov-24 22:14 UTC.
Position N 59°38' E 022°52'.

Length 163 m; draft 6 m.

Type: Ship. MMSI: 230007000.

Date/timePositionNaut miles runAvg speedWind from/ knotsBaromVisibWave heightAir tempDewpointWater temp
2017-Nov-24 12:08N 59°38' E 022°52'219.1
2017-Nov-24 12:00N 59°39' E 022°56'714.2
2017-Nov-24 11:31N 59°46' E 023°01'4 1.0
2017-Nov-24 07:20N 59°49' E 022°57'0 0.0
2017-Nov-24 06:50N 59°49' E 022°57'0 0.0
2017-Nov-24 03:16N 59°49' E 022°57'0 0.3
2017-Nov-24 02:55N 59°49' E 022°57'1 1.5
2017-Nov-24 02:29N 59°49' E 022°57'714.6
2017-Nov-24 02:00N 59°43' E 023°04'816.9
2017-Nov-24 01:30N 59°35' E 022°55'22817.7
2017-Nov-23 12:36N 56°42' E 018°15'517.3
2017-Nov-23 12:20N 56°39' E 018°09'617.2
2017-Nov-23 12:00N 56°35' E 018°01'1117.2
2017-Nov-23 11:23N 56°29' E 017°46'617.1
2017-Nov-23 11:01N 56°25' E 017°36'816.9
2017-Nov-23 10:30N 56°20' E 017°24'816.9
2017-Nov-23 10:01N 56°15' E 017°12'917.0
2017-Nov-23 09:30N 56°10' E 016°59'917.0
2017-Nov-23 09:01N 56°05' E 016°47'917.2
2017-Nov-23 08:31N 56°00' E 016°34'917.0
2017-Nov-23 08:00N 55°56' E 016°21'917.1
2017-Nov-23 07:30N 55°51' E 016°08'917.2
2017-Nov-23 07:00N 55°47' E 015°55'917.2
2017-Nov-23 06:30N 55°43' E 015°41'917.0
2017-Nov-23 06:00N 55°39' E 015°28'917.1
2017-Nov-23 05:31N 55°35' E 015°15'917.1
2017-Nov-23 04:58N 55°31' E 015°00'817.2
2017-Nov-23 04:29N 55°26' E 014°48'816.9
2017-Nov-23 04:00N 55°22' E 014°36'916.5
2017-Nov-23 03:29N 55°15' E 014°27'916.9
2017-Nov-23 02:58N 55°08' E 014°17'817.0
2017-Nov-23 02:30N 55°02' E 014°08'817.2
2017-Nov-23 02:00N 54°59' E 013°54'1317.1
2017-Nov-23 01:16N 54°55' E 013°34'517.5
2017-Nov-23 01:00N 54°53' E 013°26'917.6
2017-Nov-23 00:31N 54°51' E 013°12'917.3
2017-Nov-22 23:59N 54°47' E 012°57'917.1
2017-Nov-22 23:28N 54°44' E 012°43'816.9
2017-Nov-22 23:00N 54°40' E 012°31'917.2
2017-Nov-22 22:30N 54°35' E 012°19'917.3
2017-Nov-22 22:00N 54°27' E 012°14'917.6
2017-Nov-22 21:30N 54°20' E 012°05'714.8
2017-Nov-22 21:00N 54°13' E 012°05'4 7.7
2017-Nov-22 20:30N 54°09' E 012°06'1 1.0
2017-Nov-22 19:59N 54°08' E 012°06'  
2017-Nov-19 12:56N 56°10' E 017°02'819.5
2017-Nov-19 12:30N 56°06' E 016°50'1019.4
2017-Nov-19 12:00N 56°00' E 016°35'1019.5
2017-Nov-19 11:30N 55°56' E 016°20'1019.7
2017-Nov-19 11:00N 55°52' E 016°04'1019.8
2017-Nov-19 10:30N 55°46' E 015°49'1019.7
2017-Nov-19 10:00N 55°41' E 015°35'1020.0
2017-Nov-19 09:30N 55°36' E 015°19'1020.1
2017-Nov-19 09:00N 55°31' E 015°04'1020.0
2017-Nov-19 08:30N 55°26' E 014°49'1019.4
2017-Nov-19 08:01N 55°20' E 014°36'1019.5
2017-Nov-19 07:30N 55°12' E 014°25'1019.6
2017-Nov-19 07:00N 55°04' E 014°14'7819.4
2017-Nov-19 03:00N 54°29' E 012°14'919.2
2017-Nov-19 02:30N 54°20' E 012°07'815.4
2017-Nov-19 02:01N 54°13' E 012°05'4 8.0
2017-Nov-19 01:30N 54°09' E 012°06'0 0.0
2017-Nov-18 20:17N 54°09' E 012°06'0 0.0
2017-Nov-18 17:14N 54°09' E 012°06'0 0.0
2017-Nov-18 16:46N 54°09' E 012°06'1 3.3
2017-Nov-18 16:30N 54°09' E 012°06'3 5.0
2017-Nov-18 16:01N 54°12' E 012°05'714.6
2017-Nov-18 15:30N 54°19' E 012°02'6417.1
2017-Nov-18 11:44N 54°57' E 013°31'516.7
2017-Nov-18 11:27N 54°58' E 013°40'817.0
2017-Nov-18 10:58N 55°01' E 013°53'816.9
2017-Nov-18 10:30N 55°05' E 014°06'817.0
2017-Nov-18 10:01N 55°11' E 014°15'917.0
2017-Nov-18 09:30N 55°18' E 014°24'817.1
2017-Nov-18 09:00N 55°25' E 014°33'1017.2
2017-Nov-18 08:26N 55°31' E 014°47'717.3
2017-Nov-18 08:00N 55°35' E 014°58'917.6
2017-Nov-18 07:30N 55°39' E 015°11'917.6
2017-Nov-18 07:00N 55°43' E 015°25'917.7
2017-Nov-18 06:30N 55°48' E 015°38'917.5
2017-Nov-18 06:00N 55°52' E 015°52'917.8
2017-Nov-18 05:30N 55°56' E 016°06'918.0
2017-Nov-18 05:00N 56°00' E 016°21'918.1
2017-Nov-18 04:30N 56°05' E 016°34'29017.8
2017-Nov-17 12:10N 59°35' E 022°50'317.9
2017-Nov-17 12:00N 59°37' E 022°54'816.7
2017-Nov-17 11:30N 59°44' E 023°03'610.4
2017-Nov-17 10:57N 59°49' E 022°57'0 0.0
2017-Nov-17 10:05N 59°49' E 022°57'0 0.0
2017-Nov-17 09:59N 59°49' E 022°57'0 0.0
2017-Nov-17 09:23N 59°49' E 022°57'0 0.0
2017-Nov-17 08:53N 59°49' E 022°57'0 0.0
2017-Nov-17 08:05N 59°49' E 022°57'0 0.0
2017-Nov-17 07:59N 59°49' E 022°57'0 0.0
2017-Nov-17 07:29N 59°49' E 022°57'0 0.0
2017-Nov-17 06:47N 59°49' E 022°57'0 0.0
2017-Nov-17 06:23N 59°49' E 022°57'0 0.0
2017-Nov-17 03:32N 59°49' E 022°57'0 0.0
2017-Nov-17 03:04N 59°49' E 022°57'0 0.0
2017-Nov-17 02:59N 59°49' E 022°57'1 1.2
2017-Nov-17 02:30N 59°49' E 022°56'4 8.6
2017-Nov-17 02:01N 59°46' E 023°02'24117.2
2017-Nov-16 11:57N 56°59' E 017°28'817.0
2017-Nov-16 11:28N 56°52' E 017°22'1917.0
2017-Nov-16 10:21N 56°34' E 017°10'716.7
2017-Nov-16 09:58N 56°28' E 017°05'816.8
2017-Nov-16 09:30N 56°21' E 017°00'816.8
2017-Nov-16 09:00N 56°13' E 016°54'816.9
2017-Nov-16 08:30N 56°05' E 016°49'816.8
2017-Nov-16 08:00N 56°01' E 016°36'816.8
2017-Nov-16 07:30N 55°57' E 016°23'816.7
2017-Nov-16 07:00N 55°53' E 016°10'816.8
2017-Nov-16 06:30N 55°48' E 015°57'816.8
2017-Nov-16 06:00N 55°44' E 015°44'816.8
2017-Nov-16 05:31N 55°40' E 015°31'816.8
2017-Nov-16 05:01N 55°37' E 015°18'916.9
2017-Nov-16 04:30N 55°33' E 015°04'816.9
2017-Nov-16 04:00N 55°28' E 014°52'917.3
2017-Nov-16 03:30N 55°24' E 014°39'917.3
2017-Nov-16 03:00N 55°17' E 014°29'917.2
2017-Nov-16 02:29N 55°10' E 014°20'817.1
2017-Nov-16 02:00N 55°03' E 014°11'1116.6
2017-Nov-16 01:21N 54°58' E 013°54'917.0
2017-Nov-16 00:49N 54°56' E 013°38'617.0
2017-Nov-16 00:27N 54°54' E 013°28'916.8
2017-Nov-15 23:56N 54°51' E 013°14'1617.1
2017-Nov-15 23:00N 54°46' E 012°48'1917.1
2017-Nov-15 21:53N 54°35' E 012°21'617.1
2017-Nov-15 21:30N 54°29' E 012°15'815.7
2017-Nov-15 21:00N 54°23' E 012°07'714.4
2017-Nov-15 20:30N 54°16' E 012°04'6 9.2
2017-Nov-15 19:52N 54°10' E 012°06'2 5.1
2017-Nov-15 19:30N 54°08' E 012°06'0 0.0
2017-Nov-15 17:30N 54°08' E 012°06'0 0.0
2017-Nov-15 15:30N 54°08' E 012°06'0 0.0
2017-Nov-15 13:15N 54°08' E 012°06'0 0.0
2017-Nov-15 13:00N 54°08' E 012°06'0 0.0
2017-Nov-15 12:15N 54°08' E 012°06'0 0.0
2017-Nov-15 10:03N 54°08' E 012°06'0 0.0
2017-Nov-15 10:00N 54°08' E 012°06'0 0.0
2017-Nov-15 09:09N 54°08' E 012°06'0 0.0
2017-Nov-15 08:57N 54°08' E 012°06'0 0.0
2017-Nov-15 06:06N 54°08' E 012°06'0 0.0
2017-Nov-15 05:45N 54°08' E 012°06'0 0.0
2017-Nov-15 05:30N 54°08' E 012°06'0 0.0
2017-Nov-15 05:00N 54°08' E 012°06'1 2.4
2017-Nov-15 04:30N 54°09' E 012°06'2 3.5
2017-Nov-15 04:01N 54°11' E 012°05'714.8
2017-Nov-15 03:30N 54°18' E 012°01'7618.4
2017-Nov-14 23:23N 55°00' E 013°50'819.4
2017-Nov-14 22:57N 55°03' E 014°03'919.1
2017-Nov-14 22:30N 55°09' E 014°14'1019.9
2017-Nov-14 22:00N 55°17' E 014°25'1020.1
2017-Nov-14 21:30N 55°25' E 014°36'1019.2
2017-Nov-14 21:00N 55°30' E 014°50'1018.9
2017-Nov-14 20:27N 55°35' E 015°06'818.7
2017-Nov-14 20:00N 55°40' E 015°18'918.4
2017-Nov-14 19:30N 55°44' E 015°33'918.2
2017-Nov-14 19:00N 55°49' E 015°47'918.1
2017-Nov-14 18:30N 55°54' E 016°01'917.9
2017-Nov-14 18:00N 55°58' E 016°14'918.0
2017-Nov-14 17:30N 56°03' E 016°28'918.3
2017-Nov-14 17:00N 56°08' E 016°41'  
Track history (hours):
 
Tides and Currents Weather Stations Pressure Air Temp Water Temp Dewpoint Dewpoint Depression Visibility Wind Speed Wind Dir Waves Ship Positions

Finnhawk

Last reported at 2017-Nov-24 12:08 UTC. Time now 2017-Nov-24 22:14 UTC.
Position N 59°38' E 022°52'.

Length 163 m; draft 6 m.

Type: Ship. MMSI: 230007000.

Date/timePositionNaut miles runAvg speedWind from/ knotsBaromVisibWave heightAir tempDewpointWater temp
2017-Nov-24 12:08N 59°38' E 022°52'219.1
2017-Nov-24 12:00N 59°39' E 022°56'714.2
2017-Nov-24 11:31N 59°46' E 023°01'4 1.0
2017-Nov-24 07:20N 59°49' E 022°57'0 0.0
2017-Nov-24 06:50N 59°49' E 022°57'0 0.0
2017-Nov-24 03:16N 59°49' E 022°57'0 0.3
2017-Nov-24 02:55N 59°49' E 022°57'1 1.5
2017-Nov-24 02:29N 59°49' E 022°57'714.6
2017-Nov-24 02:00N 59°43' E 023°04'816.9
2017-Nov-24 01:30N 59°35' E 022°55'22817.7
2017-Nov-23 12:36N 56°42' E 018°15'517.3
2017-Nov-23 12:20N 56°39' E 018°09'617.2
2017-Nov-23 12:00N 56°35' E 018°01'1117.2
2017-Nov-23 11:23N 56°29' E 017°46'617.1
2017-Nov-23 11:01N 56°25' E 017°36'816.9
2017-Nov-23 10:30N 56°20' E 017°24'816.9
2017-Nov-23 10:01N 56°15' E 017°12'917.0
2017-Nov-23 09:30N 56°10' E 016°59'917.0
2017-Nov-23 09:01N 56°05' E 016°47'917.2
2017-Nov-23 08:31N 56°00' E 016°34'917.0
2017-Nov-23 08:00N 55°56' E 016°21'917.1
2017-Nov-23 07:30N 55°51' E 016°08'917.2
2017-Nov-23 07:00N 55°47' E 015°55'917.2
2017-Nov-23 06:30N 55°43' E 015°41'917.0
2017-Nov-23 06:00N 55°39' E 015°28'917.1
2017-Nov-23 05:31N 55°35' E 015°15'917.1
2017-Nov-23 04:58N 55°31' E 015°00'817.2
2017-Nov-23 04:29N 55°26' E 014°48'816.9
2017-Nov-23 04:00N 55°22' E 014°36'916.5
2017-Nov-23 03:29N 55°15' E 014°27'916.9
2017-Nov-23 02:58N 55°08' E 014°17'817.0
2017-Nov-23 02:30N 55°02' E 014°08'817.2
2017-Nov-23 02:00N 54°59' E 013°54'1317.1
2017-Nov-23 01:16N 54°55' E 013°34'517.5
2017-Nov-23 01:00N 54°53' E 013°26'917.6
2017-Nov-23 00:31N 54°51' E 013°12'917.3
2017-Nov-22 23:59N 54°47' E 012°57'917.1
2017-Nov-22 23:28N 54°44' E 012°43'816.9
2017-Nov-22 23:00N 54°40' E 012°31'917.2
2017-Nov-22 22:30N 54°35' E 012°19'917.3
2017-Nov-22 22:00N 54°27' E 012°14'917.6
2017-Nov-22 21:30N 54°20' E 012°05'714.8
2017-Nov-22 21:00N 54°13' E 012°05'4 7.7
2017-Nov-22 20:30N 54°09' E 012°06'1 1.0
2017-Nov-22 19:59N 54°08' E 012°06'  
2017-Nov-19 12:56N 56°10' E 017°02'819.5
2017-Nov-19 12:30N 56°06' E 016°50'1019.4
2017-Nov-19 12:00N 56°00' E 016°35'1019.5
2017-Nov-19 11:30N 55°56' E 016°20'1019.7
2017-Nov-19 11:00N 55°52' E 016°04'1019.8
2017-Nov-19 10:30N 55°46' E 015°49'1019.7
2017-Nov-19 10:00N 55°41' E 015°35'1020.0
2017-Nov-19 09:30N 55°36' E 015°19'1020.1
2017-Nov-19 09:00N 55°31' E 015°04'1020.0
2017-Nov-19 08:30N 55°26' E 014°49'1019.4
2017-Nov-19 08:01N 55°20' E 014°36'1019.5
2017-Nov-19 07:30N 55°12' E 014°25'1019.6
2017-Nov-19 07:00N 55°04' E 014°14'7819.4
2017-Nov-19 03:00N 54°29' E 012°14'919.2
2017-Nov-19 02:30N 54°20' E 012°07'815.4
2017-Nov-19 02:01N 54°13' E 012°05'4 8.0
2017-Nov-19 01:30N 54°09' E 012°06'0 0.0
2017-Nov-18 20:17N 54°09' E 012°06'0 0.0
2017-Nov-18 17:14N 54°09' E 012°06'0 0.0
2017-Nov-18 16:46N 54°09' E 012°06'1 3.3
2017-Nov-18 16:30N 54°09' E 012°06'3 5.0
2017-Nov-18 16:01N 54°12' E 012°05'714.6
2017-Nov-18 15:30N 54°19' E 012°02'6417.1
2017-Nov-18 11:44N 54°57' E 013°31'516.7
2017-Nov-18 11:27N 54°58' E 013°40'817.0
2017-Nov-18 10:58N 55°01' E 013°53'816.9
2017-Nov-18 10:30N 55°05' E 014°06'817.0
2017-Nov-18 10:01N 55°11' E 014°15'917.0
2017-Nov-18 09:30N 55°18' E 014°24'817.1
2017-Nov-18 09:00N 55°25' E 014°33'1017.2
2017-Nov-18 08:26N 55°31' E 014°47'717.3
2017-Nov-18 08:00N 55°35' E 014°58'917.6
2017-Nov-18 07:30N 55°39' E 015°11'917.6
2017-Nov-18 07:00N 55°43' E 015°25'917.7
2017-Nov-18 06:30N 55°48' E 015°38'917.5
2017-Nov-18 06:00N 55°52' E 015°52'917.8
2017-Nov-18 05:30N 55°56' E 016°06'918.0
2017-Nov-18 05:00N 56°00' E 016°21'918.1
2017-Nov-18 04:30N 56°05' E 016°34'29017.8
2017-Nov-17 12:10N 59°35' E 022°50'317.9
2017-Nov-17 12:00N 59°37' E 022°54'816.7
2017-Nov-17 11:30N 59°44' E 023°03'610.4
2017-Nov-17 10:57N 59°49' E 022°57'0 0.0
2017-Nov-17 10:05N 59°49' E 022°57'0 0.0
2017-Nov-17 09:59N 59°49' E 022°57'0 0.0
2017-Nov-17 09:23N 59°49' E 022°57'0 0.0
2017-Nov-17 08:53N 59°49' E 022°57'0 0.0
2017-Nov-17 08:05N 59°49' E 022°57'0 0.0
2017-Nov-17 07:59N 59°49' E 022°57'0 0.0
2017-Nov-17 07:29N 59°49' E 022°57'0 0.0
2017-Nov-17 06:47N 59°49' E 022°57'0 0.0
2017-Nov-17 06:23N 59°49' E 022°57'0 0.0
2017-Nov-17 03:32N 59°49' E 022°57'0 0.0
2017-Nov-17 03:04N 59°49' E 022°57'0 0.0
2017-Nov-17 02:59N 59°49' E 022°57'1 1.2
2017-Nov-17 02:30N 59°49' E 022°56'4 8.6
2017-Nov-17 02:01N 59°46' E 023°02'24117.2
2017-Nov-16 11:57N 56°59' E 017°28'817.0
2017-Nov-16 11:28N 56°52' E 017°22'1917.0
2017-Nov-16 10:21N 56°34' E 017°10'716.7
2017-Nov-16 09:58N 56°28' E 017°05'816.8
2017-Nov-16 09:30N 56°21' E 017°00'816.8
2017-Nov-16 09:00N 56°13' E 016°54'816.9
2017-Nov-16 08:30N 56°05' E 016°49'816.8
2017-Nov-16 08:00N 56°01' E 016°36'816.8
2017-Nov-16 07:30N 55°57' E 016°23'816.7
2017-Nov-16 07:00N 55°53' E 016°10'816.8
2017-Nov-16 06:30N 55°48' E 015°57'816.8
2017-Nov-16 06:00N 55°44' E 015°44'816.8
2017-Nov-16 05:31N 55°40' E 015°31'816.8
2017-Nov-16 05:01N 55°37' E 015°18'916.9
2017-Nov-16 04:30N 55°33' E 015°04'816.9
2017-Nov-16 04:00N 55°28' E 014°52'917.3
2017-Nov-16 03:30N 55°24' E 014°39'917.3
2017-Nov-16 03:00N 55°17' E 014°29'917.2
2017-Nov-16 02:29N 55°10' E 014°20'817.1
2017-Nov-16 02:00N 55°03' E 014°11'1116.6
2017-Nov-16 01:21N 54°58' E 013°54'917.0
2017-Nov-16 00:49N 54°56' E 013°38'617.0
2017-Nov-16 00:27N 54°54' E 013°28'916.8
2017-Nov-15 23:56N 54°51' E 013°14'1617.1
2017-Nov-15 23:00N 54°46' E 012°48'1917.1
2017-Nov-15 21:53N 54°35' E 012°21'617.1
2017-Nov-15 21:30N 54°29' E 012°15'815.7
2017-Nov-15 21:00N 54°23' E 012°07'714.4
2017-Nov-15 20:30N 54°16' E 012°04'6 9.2
2017-Nov-15 19:52N 54°10' E 012°06'2 5.1
2017-Nov-15 19:30N 54°08' E 012°06'0 0.0
2017-Nov-15 17:30N 54°08' E 012°06'0 0.0
2017-Nov-15 15:30N 54°08' E 012°06'0 0.0
2017-Nov-15 13:15N 54°08' E 012°06'0 0.0
2017-Nov-15 13:00N 54°08' E 012°06'0 0.0
2017-Nov-15 12:15N 54°08' E 012°06'0 0.0
2017-Nov-15 10:03N 54°08' E 012°06'0 0.0
2017-Nov-15 10:00N 54°08' E 012°06'0 0.0
2017-Nov-15 09:09N 54°08' E 012°06'0 0.0
2017-Nov-15 08:57N 54°08' E 012°06'0 0.0
2017-Nov-15 06:06N 54°08' E 012°06'0 0.0
2017-Nov-15 05:45N 54°08' E 012°06'0 0.0
2017-Nov-15 05:30N 54°08' E 012°06'0 0.0
2017-Nov-15 05:00N 54°08' E 012°06'1 2.4
2017-Nov-15 04:30N 54°09' E 012°06'2 3.5
2017-Nov-15 04:01N 54°11' E 012°05'714.8
2017-Nov-15 03:30N 54°18' E 012°01'7618.4
2017-Nov-14 23:23N 55°00' E 013°50'819.4
2017-Nov-14 22:57N 55°03' E 014°03'919.1
2017-Nov-14 22:30N 55°09' E 014°14'1019.9
2017-Nov-14 22:00N 55°17' E 014°25'1020.1
2017-Nov-14 21:30N 55°25' E 014°36'1019.2
2017-Nov-14 21:00N 55°30' E 014°50'1018.9
2017-Nov-14 20:27N 55°35' E 015°06'818.7
2017-Nov-14 20:00N 55°40' E 015°18'918.4
2017-Nov-14 19:30N 55°44' E 015°33'918.2
2017-Nov-14 19:00N 55°49' E 015°47'918.1
2017-Nov-14 18:30N 55°54' E 016°01'917.9
2017-Nov-14 18:00N 55°58' E 016°14'918.0
2017-Nov-14 17:30N 56°03' E 016°28'918.3
2017-Nov-14 17:00N 56°08' E 016°41'  

Dump ship's entire track history